Time;durP1;ratioP1;P1;durP2;ratioP2;P2;SDS_P1;SDS_P2;PMS_P1;PMS_P2;Temp;Humidity;BMP_temperature;BMP_pressure;BME280_temperature;BME280_humidity;BME280_pressure;Samples;Min_cycle;Max_cycle;Signal;HPM_P1;HPM_P2
2024/03/07 00:00:27;;;;;;;71.97;30.55;;;;;;;;;;5055720;28;20045;-59
2024/03/07 00:02:54;;;;;;;69.35;28.92;;;;;;;;;;5056325;28;20124;-57
2024/03/07 00:05:21;;;;;;;68.65;29.63;;;;;;;;;;5052356;28;20036;-57
2024/03/07 00:07:47;;;;;;;68.47;27.55;;;;;;;;;;5056333;28;20113;-58
2024/03/07 00:10:15;;;;;;;61.40;27.90;;;;;;;;;;5058705;28;20029;-57
2024/03/07 00:12:40;;;;;;;68.95;28.63;;;;;;;;;;5063839;28;20026;-58
2024/03/07 00:15:07;;;;;;;74.37;27.10;;;;;;;;;;5055921;28;20037;-54
2024/03/07 00:17:32;;;;;;;72.68;27.75;;;;;;;;;;5056150;28;20276;-57
2024/03/07 00:19:58;;;;;;;75.95;28.48;;;;;;;;;;5056238;28;20029;-57
2024/03/07 00:22:26;;;;;;;67.78;29.30;;;;;;;;;;5063141;28;20055;-57
2024/03/07 00:24:53;;;;;;;69.43;29.67;;;;;;;;;;5058500;28;20038;-57
2024/03/07 00:27:20;;;;;;;73.53;29.20;;;;;;;;;;5056012;28;20055;-58
2024/03/07 00:29:52;;;;;;;67.00;29.42;;;;;;;;;;5056017;28;20032;-57
2024/03/07 00:32:18;;;;;;;64.30;29.35;;;;;;;;;;5056004;28;20044;-57
2024/03/07 00:34:44;;;;;;;65.82;28.08;;;;;;;;;;5055825;28;20040;-58
2024/03/07 00:37:09;;;;;;;70.97;28.93;;;;;;;;;;5055670;28;20033;-55
2024/03/07 00:39:35;;;;;;;73.70;29.50;;;;;;;;;;5055973;28;20036;-56
2024/03/07 00:42:00;;;;;;;73.97;30.50;;;;;;;;;;5066030;28;20282;-55
2024/03/07 00:44:26;;;;;;;73.22;30.10;;;;;;;;;;5055669;28;20497;-56
2024/03/07 00:46:52;;;;;;;70.50;28.63;;;;;;;;;;5054122;28;20120;-56
2024/03/07 00:49:17;;;;;;;77.40;30.00;;;;;;;;;;5055750;28;20025;-54
2024/03/07 00:51:44;;;;;;;68.63;29.77;;;;;;;;;;5064007;28;20036;-58
2024/03/07 00:54:12;;;;;;;;;;;;;;;;;;5058180;28;20036;-55
2024/03/07 00:56:38;;;;;;;72.50;29.52;;;;;;;;;;5058402;28;19916;-56
2024/03/07 00:59:03;;;;;;;69.70;28.67;;;;;;;;;;5055331;28;20037;-57
2024/03/07 01:01:29;;;;;;;69.13;29.67;;;;;;;;;;5060625;28;20029;-57
2024/03/07 01:03:54;;;;;;;78.33;30.50;;;;;;;;;;5055330;28;20038;-53
2024/03/07 01:06:20;;;;;;;71.07;29.33;;;;;;;;;;5055056;28;20342;-57
2024/03/07 01:08:45;;;;;;;76.17;30.53;;;;;;;;;;5054902;28;20083;-55
2024/03/07 01:11:12;;;;;;;71.17;29.70;;;;;;;;;;5057051;28;20296;-58
2024/03/07 01:13:38;;;;;;;73.53;30.63;;;;;;;;;;5055185;28;20026;-59
2024/03/07 01:16:04;;;;;;;72.78;29.30;;;;;;;;;;5054554;28;20044;-53
2024/03/07 01:18:33;;;;;;;82.13;30.73;;;;;;;;;;5055119;28;20029;-58
2024/03/07 01:20:59;;;;;;;80.00;32.28;;;;;;;;;;5056665;28;20026;-55
2024/03/07 01:23:24;;;;;;;;;;;;;;;;;;5064784;28;20025;-53
2024/03/07 01:25:50;;;;;;;81.15;30.95;;;;;;;;;;5061076;28;19952;-56
2024/03/07 01:28:17;;;;;;;88.07;33.88;;;;;;;;;;5055022;28;20034;-56
2024/03/07 01:30:43;;;;;;;94.50;35.38;;;;;;;;;;5054512;28;20097;-56
2024/03/07 01:33:08;;;;;;;84.73;33.97;;;;;;;;;;5062927;28;20033;-57
2024/03/07 01:35:34;;;;;;;81.87;31.43;;;;;;;;;;5054279;28;20258;-58
2024/03/07 01:37:59;;;;;;;83.33;32.30;;;;;;;;;;5055074;28;20060;-56
2024/03/07 01:40:25;;;;;;;83.90;33.15;;;;;;;;;;5054246;28;20041;-56
2024/03/07 01:42:50;;;;;;;79.53;29.77;;;;;;;;;;5060033;28;20129;-55
2024/03/07 01:45:15;;;;;;;78.07;32.57;;;;;;;;;;5055252;28;20025;-55
2024/03/07 01:47:41;;;;;;;93.80;33.22;;;;;;;;;;5060935;28;20044;-58
2024/03/07 01:50:07;;;;;;;73.10;31.33;;;;;;;;;;5054387;28;20085;-56
2024/03/07 01:52:33;;;;;;;78.15;31.40;;;;;;;;;;5057131;28;20267;-56
2024/03/07 01:54:58;;;;;;;91.23;33.60;;;;;;;;;;5055715;28;20086;-57
2024/03/07 01:57:24;;;;;;;83.45;30.63;;;;;;;;;;5055015;28;20378;-59
2024/03/07 01:59:50;;;;;;;77.38;31.20;;;;;;;;;;5053795;28;20093;-56
2024/03/07 02:02:16;;;;;;;60.20;24.37;;;;;;;;;;5054326;28;20040;-57
2024/03/07 02:04:43;;;;;;;79.03;31.58;;;;;;;;;;5053934;28;20051;-57
2024/03/07 02:07:11;;;;;;;73.50;31.20;;;;;;;;;;5054423;28;20060;-56
2024/03/07 02:09:37;;;;;;;78.03;31.88;;;;;;;;;;5053895;28;20303;-55
2024/03/07 02:12:03;;;;;;;76.75;31.88;;;;;;;;;;5057456;28;20037;-53
2024/03/07 02:14:29;;;;;;;77.80;32.60;;;;;;;;;;5054249;28;20026;-58
2024/03/07 02:16:56;;;;;;;76.18;32.03;;;;;;;;;;5053763;28;20029;-58
2024/03/07 02:19:21;;;;;;;;;;;;;;;;;;5053444;28;20041;-58
2024/03/07 02:21:47;;;;;;;72.67;29.20;;;;;;;;;;5061265;28;19912;-57
2024/03/07 02:24:14;;;;;;;57.30;24.50;;;;;;;;;;5055272;28;20032;-57
2024/03/07 02:26:39;;;;;;;75.47;31.85;;;;;;;;;;5063221;28;20037;-57
2024/03/07 02:29:05;;;;;;;80.03;33.33;;;;;;;;;;5056425;28;20053;-53
2024/03/07 02:31:37;;;;;;;82.30;32.72;;;;;;;;;;5066469;28;20029;-58
2024/03/07 02:34:03;;;;;;;74.03;31.38;;;;;;;;;;5054969;28;20034;-58
2024/03/07 02:36:29;;;;;;;76.30;32.78;;;;;;;;;;5053911;28;20097;-57
2024/03/07 02:38:54;;;;;;;78.93;33.17;;;;;;;;;;5053719;28;20038;-55
2024/03/07 02:41:20;;;;;;;79.53;32.77;;;;;;;;;;5055592;28;20029;-58
2024/03/07 02:43:46;;;;;;;74.20;31.15;;;;;;;;;;5054384;28;20286;-58
2024/03/07 02:46:11;;;;;;;83.13;33.23;;;;;;;;;;5054874;28;20029;-56
2024/03/07 02:48:38;;;;;;;72.85;32.38;;;;;;;;;;5053696;28;20064;-56
2024/03/07 02:51:05;;;;;;;;;;;;;;;;;;5054157;28;20103;-56
2024/03/07 02:53:32;;;;;;;83.07;30.63;;;;;;;;;;5053840;28;19936;-55
2024/03/07 02:55:57;;;;;;;73.53;30.40;;;;;;;;;;5052900;28;20032;-57
2024/03/07 02:58:24;;;;;;;75.43;32.90;;;;;;;;;;5054611;28;20033;-56
2024/03/07 03:01:03;;;;;;;79.55;32.30;;;;;;;;;;5056220;28;20033;-58
2024/03/07 03:03:32;;;;;;;83.18;32.72;;;;;;;;;;5055961;28;20033;-56
2024/03/07 03:05:58;;;;;;;77.60;30.42;;;;;;;;;;5052564;28;20085;-54
2024/03/07 03:08:24;;;;;;;88.97;33.92;;;;;;;;;;5053822;28;20041;-55
2024/03/07 03:10:51;;;;;;;80.73;31.73;;;;;;;;;;5055430;28;20033;-58
2024/03/07 03:13:16;;;;;;;82.40;33.78;;;;;;;;;;5065128;28;20036;-55
2024/03/07 03:15:42;;;;;;;84.17;32.43;;;;;;;;;;5057206;28;20105;-58
2024/03/07 03:18:09;;;;;;;82.05;34.83;;;;;;;;;;5056936;28;20262;-57
2024/03/07 03:20:34;;;;;;;86.32;34.28;;;;;;;;;;5059123;28;20041;-56
2024/03/07 03:23:02;;;;;;;85.05;31.98;;;;;;;;;;5061000;28;20033;-57
2024/03/07 03:25:28;;;;;;;80.38;33.83;;;;;;;;;;5057068;28;20064;-57
2024/03/07 03:27:54;;;;;;;83.37;33.67;;;;;;;;;;5064451;28;20084;-57
2024/03/07 03:30:19;;;;;;;85.83;32.27;;;;;;;;;;5058069;28;20250;-55
2024/03/07 03:32:46;;;;;;;85.33;32.90;;;;;;;;;;5059426;28;20022;-56
2024/03/07 03:35:13;;;;;;;80.68;32.78;;;;;;;;;;5056912;28;20037;-57
2024/03/07 03:37:45;;;;;;;92.43;34.42;;;;;;;;;;5058367;28;20025;-58
2024/03/07 03:40:10;;;;;;;82.18;33.88;;;;;;;;;;5056719;28;20040;-59
2024/03/07 03:42:40;;;;;;;87.35;31.80;;;;;;;;;;5059369;28;20044;-57
2024/03/07 03:45:06;;;;;;;87.25;33.30;;;;;;;;;;5056377;28;20037;-58
2024/03/07 03:47:35;;;;;;;88.50;34.93;;;;;;;;;;5056881;28;20033;-57
2024/03/07 03:50:01;;;;;;;91.07;35.70;;;;;;;;;;5056996;28;20266;-57
2024/03/07 03:52:28;;;;;;;90.95;34.85;;;;;;;;;;5059288;28;20100;-59
2024/03/07 03:54:54;;;;;;;89.93;31.50;;;;;;;;;;5056397;28;20125;-56
2024/03/07 03:57:20;;;;;;;86.10;35.05;;;;;;;;;;5055751;28;20026;-56
2024/03/07 03:59:45;;;;;;;87.88;33.67;;;;;;;;;;5056446;28;20101;-58
2024/03/07 04:02:11;;;;;;;94.87;35.50;;;;;;;;;;5065097;28;20040;-56
2024/03/07 04:04:40;;;;;;;81.20;33.40;;;;;;;;;;5056604;28;20029;-58
2024/03/07 04:07:05;;;;;;;96.78;35.92;;;;;;;;;;5055422;28;20036;-55
2024/03/07 04:09:31;;;;;;;84.65;34.00;;;;;;;;;;5056519;28;20034;-58
2024/03/07 04:11:57;;;;;;;95.25;36.78;;;;;;;;;;5060329;28;20050;-58
2024/03/07 04:14:23;;;;;;;83.82;32.95;;;;;;;;;;5060165;28;20032;-56
2024/03/07 04:16:49;;;;;;;79.30;31.17;;;;;;;;;;5055576;28;20072;-58
2024/03/07 04:19:15;;;;;;;91.90;36.47;;;;;;;;;;5055671;28;20029;-59
2024/03/07 04:21:41;;;;;;;83.97;32.60;;;;;;;;;;5042859;28;20029;-58
2024/03/07 04:24:06;;;;;;;96.03;35.55;;;;;;;;;;5059783;28;20041;-57
2024/03/07 04:26:32;;;;;;;91.60;37.10;;;;;;;;;;5055976;28;20089;-56
2024/03/07 04:28:58;;;;;;;90.82;34.03;;;;;;;;;;5055814;28;20049;-58
2024/03/07 04:31:23;;;;;;;89.00;33.83;;;;;;;;;;5056117;28;20029;-55
2024/03/07 04:33:48;;;;;;;98.83;36.13;;;;;;;;;;5056450;28;20029;-54
2024/03/07 04:36:14;;;;;;;87.27;34.27;;;;;;;;;;5055805;28;20258;-55
2024/03/07 04:38:44;;;;;;;87.27;33.70;;;;;;;;;;5055352;28;20029;-56
2024/03/07 04:41:10;;;;;;;82.05;33.30;;;;;;;;;;5055675;28;20045;-56
2024/03/07 04:43:35;;;;;;;;;;;;;;;;;;5063498;28;20051;-55
2024/03/07 04:46:01;;;;;;;80.73;31.07;;;;;;;;;;5055557;28;19913;-56
2024/03/07 04:48:26;;;;;;;79.50;33.07;;;;;;;;;;5057215;28;20036;-55
2024/03/07 04:50:52;;;;;;;85.90;34.63;;;;;;;;;;5055748;28;20048;-58
2024/03/07 04:53:17;;;;;;;90.43;34.93;;;;;;;;;;5059860;28;20037;-55
2024/03/07 04:55:43;;;;;;;103.90;36.25;;;;;;;;;;5055309;28;20097;-58
2024/03/07 04:58:09;;;;;;;90.00;34.83;;;;;;;;;;5054941;28;20041;-56
2024/03/07 05:00:34;;;;;;;90.93;34.67;;;;;;;;;;5055202;28;20034;-57
2024/03/07 05:02:59;;;;;;;87.50;34.77;;;;;;;;;;5055825;28;20064;-56
2024/03/07 05:05:26;;;;;;;85.45;33.28;;;;;;;;;;5055220;28;20022;-58
2024/03/07 05:07:52;;;;;;;82.05;34.63;;;;;;;;;;5054836;28;20052;-57
2024/03/07 05:10:18;;;;;;;86.05;35.92;;;;;;;;;;5055125;28;20033;-58
2024/03/07 05:12:43;;;;;;;98.72;34.00;;;;;;;;;;5056405;28;20030;-57
2024/03/07 05:15:11;;;;;;;86.73;33.73;;;;;;;;;;5064571;28;20060;-56
2024/03/07 05:17:38;;;;;;;96.55;36.78;;;;;;;;;;5060337;28;20269;-56
2024/03/07 05:20:09;;;;;;;85.78;35.45;;;;;;;;;;5054045;28;20049;-55
2024/03/07 05:22:40;;;;;;;94.32;35.55;;;;;;;;;;5051905;28;20032;-53
2024/03/07 05:25:06;;;;;;;93.80;35.75;;;;;;;;;;5055042;28;20068;-55
2024/03/07 05:27:31;;;;;;;89.18;35.33;;;;;;;;;;5054741;28;20044;-55
2024/03/07 05:29:57;;;;;;;72.63;27.75;;;;;;;;;;5062910;28;20052;-57
2024/03/07 05:32:23;;;;;;;89.78;34.67;;;;;;;;;;5052842;28;20029;-57
2024/03/07 05:34:49;;;;;;;100.18;36.08;;;;;;;;;;5060718;28;20036;-57
2024/03/07 05:37:15;;;;;;;88.28;33.97;;;;;;;;;;5054528;28;20038;-56
2024/03/07 05:39:40;;;;;;;99.20;35.67;;;;;;;;;;5060260;28;20033;-59
2024/03/07 05:42:07;;;;;;;93.43;34.83;;;;;;;;;;5053492;28;20378;-57
2024/03/07 05:44:32;;;;;;;;;;;;;;;;;;5058321;28;20028;-51
2024/03/07 05:46:57;;;;;;;88.30;35.27;;;;;;;;;;5052761;28;19976;-58
2024/03/07 05:49:23;;;;;;;83.27;33.53;;;;;;;;;;5055687;28;20033;-58
2024/03/07 05:51:48;;;;;;;138.43;50.05;;;;;;;;;;5053231;28;20037;-59
2024/03/07 05:54:14;;;;;;;85.23;34.50;;;;;;;;;;5056395;28;20041;-57
2024/03/07 05:56:40;;;;;;;94.57;34.83;;;;;;;;;;5054324;28;20026;-55
2024/03/07 05:59:12;;;;;;;104.40;38.13;;;;;;;;;;5064284;28;20266;-55
2024/03/07 06:01:38;;;;;;;88.55;34.88;;;;;;;;;;5054649;28;20033;-55
2024/03/07 06:04:10;;;;;;;94.07;37.80;;;;;;;;;;5059051;28;20063;-56
2024/03/07 06:06:36;;;;;;;100.20;38.70;;;;;;;;;;5069906;28;20056;-58
2024/03/07 06:09:09;;;;;;;94.40;36.83;;;;;;;;;;5053878;28;20064;-56
2024/03/07 06:11:35;;;;;;;91.13;35.58;;;;;;;;;;5053748;28;20301;-58
2024/03/07 06:14:02;;;;;;;92.53;35.80;;;;;;;;;;5056975;28;20033;-56
2024/03/07 06:16:32;;;;;;;97.55;34.53;;;;;;;;;;5054200;28;20037;-58
2024/03/07 06:19:01;;;;;;;95.65;34.47;;;;;;;;;;5053788;28;20030;-57
2024/03/07 06:21:27;;;;;;;87.72;34.78;;;;;;;;;;5054266;28;20045;-56
2024/03/07 06:23:59;;;;;;;93.38;36.42;;;;;;;;;;5055230;28;20025;-58
2024/03/07 06:26:37;;;;;;;94.72;36.75;;;;;;;;;;5054032;28;20033;-57
2024/03/07 06:29:05;;;;;;;101.10;37.15;;;;;;;;;;5053655;28;20085;-50
2024/03/07 06:31:31;;;;;;;98.57;38.05;;;;;;;;;;5053765;28;20089;-56
2024/03/07 06:33:56;;;;;;;94.35;35.67;;;;;;;;;;5053722;28;20064;-57
2024/03/07 06:36:22;;;;;;;88.50;36.70;;;;;;;;;;5053799;28;20042;-56
2024/03/07 06:38:47;;;;;;;99.97;38.13;;;;;;;;;;5053428;28;20085;-57
2024/03/07 06:41:13;;;;;;;90.63;33.80;;;;;;;;;;5052981;28;20117;-59
2024/03/07 06:43:39;;;;;;;91.40;37.20;;;;;;;;;;5056260;28;20029;-58
2024/03/07 06:46:05;;;;;;;89.65;34.22;;;;;;;;;;5055787;28;20029;-57
2024/03/07 06:48:31;;;;;;;98.20;35.88;;;;;;;;;;5059245;28;20056;-54
2024/03/07 06:50:57;;;;;;;77.18;33.95;;;;;;;;;;5056084;28;20022;-56
2024/03/07 06:53:26;;;;;;;88.20;34.77;;;;;;;;;;5061873;28;20070;-58
2024/03/07 06:55:53;;;;;;;96.18;32.95;;;;;;;;;;5057743;28;20072;-58
2024/03/07 06:58:19;;;;;;;82.70;33.90;;;;;;;;;;5059686;28;20037;-56
2024/03/07 07:00:45;;;;;;;80.00;33.87;;;;;;;;;;5053208;28;20037;-54
2024/03/07 07:03:12;;;;;;;76.30;30.98;;;;;;;;;;5060068;28;20025;-58
2024/03/07 07:05:38;;;;;;;94.70;34.33;;;;;;;;;;5057712;28;20021;-59
2024/03/07 07:08:04;;;;;;;84.57;33.78;;;;;;;;;;5057449;28;20026;-55
2024/03/07 07:10:29;;;;;;;77.55;31.05;;;;;;;;;;5056855;28;20018;-55
2024/03/07 07:12:55;;;;;;;75.77;31.77;;;;;;;;;;5066529;28;20105;-56
2024/03/07 07:15:20;;;;;;;82.07;34.33;;;;;;;;;;5059998;28;20277;-55
2024/03/07 07:17:46;;;;;;;74.13;32.53;;;;;;;;;;5056851;28;20113;-55
2024/03/07 07:20:14;;;;;;;78.88;32.83;;;;;;;;;;5065152;28;20045;-55
2024/03/07 07:22:40;;;;;;;72.88;31.45;;;;;;;;;;5056552;28;20045;-55
2024/03/07 07:25:05;;;;;;;74.27;31.77;;;;;;;;;;5060235;28;20033;-56
2024/03/07 07:27:34;;;;;;;75.07;32.45;;;;;;;;;;5057238;28;20092;-54
2024/03/07 07:29:59;;;;;;;75.82;30.45;;;;;;;;;;5056738;28;20033;-57
2024/03/07 07:32:25;;;;;;;69.82;29.27;;;;;;;;;;5061613;28;20091;-57
2024/03/07 07:34:51;;;;;;;80.05;30.05;;;;;;;;;;5059830;28;20071;-55
2024/03/07 07:37:16;;;;;;;75.17;31.47;;;;;;;;;;5056244;28;20037;-58
2024/03/07 07:39:42;;;;;;;70.97;29.67;;;;;;;;;;5061707;28;20337;-55
2024/03/07 07:42:09;;;;;;;75.80;30.10;;;;;;;;;;5049372;28;20052;-55
2024/03/07 07:44:35;;;;;;;76.18;29.67;;;;;;;;;;5058520;28;20029;-54
2024/03/07 07:47:01;;;;;;;68.93;29.53;;;;;;;;;;5054687;28;20052;-57
2024/03/07 07:49:26;;;;;;;76.55;29.80;;;;;;;;;;5058687;28;20485;-55
2024/03/07 07:51:53;;;;;;;77.23;25.87;;;;;;;;;;5056614;28;20053;-55
2024/03/07 07:54:20;;;;;;;59.08;25.50;;;;;;;;;;5055386;28;20059;-55
2024/03/07 07:56:47;;;;;;;65.22;27.50;;;;;;;;;;5049762;28;20046;-55
2024/03/07 07:59:13;;;;;;;71.75;29.77;;;;;;;;;;5056679;28;20033;-56
2024/03/07 08:01:38;;;;;;;67.43;27.63;;;;;;;;;;5055932;28;20038;-58
2024/03/07 08:04:04;;;;;;;63.85;26.15;;;;;;;;;;5057829;28;20026;-56
2024/03/07 08:06:30;;;;;;;62.27;27.83;;;;;;;;;;5056587;28;20025;-56
2024/03/07 08:08:55;;;;;;;60.10;25.98;;;;;;;;;;5060812;28;20278;-54
2024/03/07 08:11:21;;;;;;;62.50;26.40;;;;;;;;;;5052739;28;20061;-59
2024/03/07 08:13:49;;;;;;;58.37;24.03;;;;;;;;;;5057468;28;20055;-57
2024/03/07 08:16:15;;;;;;;62.22;26.80;;;;;;;;;;5057543;28;20270;-58
2024/03/07 08:18:40;;;;;;;50.42;22.58;;;;;;;;;;5055592;28;20081;-57
2024/03/07 08:21:06;;;;;;;48.43;20.50;;;;;;;;;;5058491;28;20026;-57
2024/03/07 08:23:31;;;;;;;50.83;23.57;;;;;;;;;;5060070;28;20088;-54
2024/03/07 08:25:57;;;;;;;43.22;21.23;;;;;;;;;;5060551;28;20040;-56
2024/03/07 08:28:23;;;;;;;43.77;20.20;;;;;;;;;;5056146;28;20056;-57
2024/03/07 08:30:48;;;;;;;51.88;22.63;;;;;;;;;;5054241;28;20297;-55
2024/03/07 08:33:14;;;;;;;42.80;19.80;;;;;;;;;;5065542;28;20060;-57
2024/03/07 08:35:40;;;;;;;42.95;20.25;;;;;;;;;;5052481;28;20040;-56
2024/03/07 08:38:08;;;;;;;44.97;22.00;;;;;;;;;;5055992;28;20037;-57
2024/03/07 08:40:33;;;;;;;39.22;19.05;;;;;;;;;;5054811;28;20060;-58
2024/03/07 08:42:59;;;;;;;41.33;18.83;;;;;;;;;;5055562;28;20061;-56
2024/03/07 08:45:26;;;;;;;35.58;18.40;;;;;;;;;;5055898;28;20025;-56
2024/03/07 08:47:55;;;;;;;39.30;19.75;;;;;;;;;;5053109;28;20033;-57
2024/03/07 08:50:22;;;;;;;43.88;19.52;;;;;;;;;;5050703;28;20057;-57
2024/03/07 08:52:48;;;;;;;37.13;20.25;;;;;;;;;;5052856;28;20037;-58
2024/03/07 08:55:14;;;;;;;40.70;19.20;;;;;;;;;;5061555;28;20025;-56
2024/03/07 08:57:40;;;;;;;39.55;19.45;;;;;;;;;;5051637;28;20055;-57
2024/03/07 09:00:09;;;;;;;34.50;18.50;;;;;;;;;;5050377;28;20034;-58
2024/03/07 09:02:35;;;;;;;33.77;16.70;;;;;;;;;;5055716;28;20049;-58
2024/03/07 09:05:01;;;;;;;33.63;16.77;;;;;;;;;;5057254;28;20297;-60
2024/03/07 09:07:26;;;;;;;28.30;15.38;;;;;;;;;;5049465;28;20025;-58
2024/03/07 09:09:52;;;;;;;32.60;16.00;;;;;;;;;;5053914;28;20041;-58
2024/03/07 09:12:20;;;;;;;27.10;15.17;;;;;;;;;;5051485;28;20033;-56
2024/03/07 09:14:45;;;;;;;27.13;16.00;;;;;;;;;;5053502;28;20033;-58
2024/03/07 09:17:10;;;;;;;25.77;14.37;;;;;;;;;;5051912;28;20267;-58
2024/03/07 09:19:36;;;;;;;28.03;15.70;;;;;;;;;;5054187;28;20263;-59
2024/03/07 09:22:03;;;;;;;32.27;16.27;;;;;;;;;;5048140;28;20041;-57
2024/03/07 09:24:28;;;;;;;30.67;16.37;;;;;;;;;;5057379;28;20084;-55
2024/03/07 09:26:55;;;;;;;27.83;15.57;;;;;;;;;;5053675;28;20270;-57
2024/03/07 09:29:22;;;;;;;24.63;12.17;;;;;;;;;;5059403;28;20048;-56
2024/03/07 09:31:53;;;;;;;25.08;13.38;;;;;;;;;;5053137;28;20286;-59
2024/03/07 09:34:20;;;;;;;26.40;16.17;;;;;;;;;;5054032;28;20029;-57
2024/03/07 09:36:46;;;;;;;33.03;16.37;;;;;;;;;;5052636;28;20064;-59
2024/03/07 09:39:14;;;;;;;25.02;15.23;;;;;;;;;;5054098;28;20046;-59
2024/03/07 09:41:40;;;;;;;29.57;15.57;;;;;;;;;;5052692;28;20137;-57
2024/03/07 09:44:08;;;;;;;33.85;15.63;;;;;;;;;;5053583;28;20025;-60
2024/03/07 09:46:34;;;;;;;22.63;13.07;;;;;;;;;;5053562;28;20025;-59
2024/03/07 09:49:00;;;;;;;23.23;13.93;;;;;;;;;;5053586;28;20059;-58
2024/03/07 09:51:25;;;;;;;25.75;15.13;;;;;;;;;;5043676;28;20030;-60
2024/03/07 09:53:52;;;;;;;25.67;15.18;;;;;;;;;;5055863;28;20064;-57
2024/03/07 09:56:17;;;;;;;;;;;;;;;;;;5065798;28;20045;-58
2024/03/07 09:58:44;;;;;;;28.98;13.80;;;;;;;;;;5069529;28;19909;-59
2024/03/07 10:01:11;;;;;;;26.17;14.43;;;;;;;;;;5049261;28;20042;-60
2024/03/07 10:03:37;;;;;;;28.00;15.23;;;;;;;;;;5053797;28;20017;-56
2024/03/07 10:06:03;;;;;;;;;;;;;;;;;;5051807;28;20055;-58
2024/03/07 10:08:29;;;;;;;25.93;15.07;;;;;;;;;;5054043;28;19916;-59
2024/03/07 10:10:55;;;;;;;22.38;14.68;;;;;;;;;;5056327;28;20064;-56
2024/03/07 10:13:22;;;;;;;;;;;;;;;;;;5054620;28;20036;-58
2024/03/07 10:15:48;;;;;;;28.45;15.52;;;;;;;;;;5053772;28;19909;-60
2024/03/07 10:18:15;;;;;;;24.83;14.30;;;;;;;;;;5053378;28;20041;-58
2024/03/07 10:20:42;;;;;;;22.83;13.27;;;;;;;;;;5052869;28;20036;-57
2024/03/07 10:23:07;;;;;;;25.20;14.27;;;;;;;;;;5048305;28;20040;-59
2024/03/07 10:25:33;;;;;;;22.45;13.57;;;;;;;;;;5055052;28;20033;-59
2024/03/07 10:28:00;;;;;;;23.65;13.45;;;;;;;;;;5053662;28;20038;-57
2024/03/07 10:30:27;;;;;;;22.40;11.67;;;;;;;;;;5052746;28;20092;-58
2024/03/07 10:32:55;;;;;;;20.93;12.93;;;;;;;;;;5055269;28;20056;-60
2024/03/07 10:35:22;;;;;;;24.10;12.80;;;;;;;;;;5052868;28;20184;-59
2024/03/07 10:37:48;;;;;;;22.07;13.33;;;;;;;;;;5053480;28;20045;-59
2024/03/07 10:40:17;;;;;;;;;;;;;;;;;;5052455;28;20076;-60
2024/03/07 10:42:51;;;;;;;18.13;11.47;;;;;;;;;;5057851;28;19917;-58
2024/03/07 10:45:18;;;;;;;23.63;13.90;;;;;;;;;;5061325;28;20037;-57
2024/03/07 10:47:45;;;;;;;19.37;12.83;;;;;;;;;;5052109;28;20089;-57
2024/03/07 10:50:19;;;;;;;20.97;13.40;;;;;;;;;;5053427;28;20053;-59
2024/03/07 10:52:57;;;;;;;19.57;12.53;;;;;;;;;;5046598;28;20038;-59
2024/03/07 10:55:42;;;;;;;18.00;11.77;;;;;;;;;;5045809;28;20032;-58
2024/03/07 10:58:18;;;;;;;23.73;12.90;;;;;;;;;;5052139;28;20044;-55
2024/03/07 11:00:45;;;;;;;19.07;11.70;;;;;;;;;;5059360;28;20109;-59
2024/03/07 11:03:13;;;;;;;18.07;10.97;;;;;;;;;;5051108;28;20049;-59
2024/03/07 11:05:39;;;;;;;23.97;13.37;;;;;;;;;;5053219;28;20030;-60
2024/03/07 11:08:14;;;;;;;;;;;;;;;;;;5051010;28;20036;-59
2024/03/07 11:10:40;;;;;;;20.60;11.80;;;;;;;;;;5053508;28;19916;-59
2024/03/07 11:13:05;;;;;;;;;;;;;;;;;;5051951;28;20037;-60
2024/03/07 11:15:32;;;;;;;26.17;12.43;;;;;;;;;;5050013;28;19940;-59
2024/03/07 11:17:59;;;;;;;20.47;12.30;;;;;;;;;;5052919;28;20079;-59
2024/03/07 11:20:25;;;;;;;24.23;12.63;;;;;;;;;;5053128;28;20037;-59
2024/03/07 11:22:51;;;;;;;34.67;14.70;;;;;;;;;;5052790;28;20033;-59
2024/03/07 11:25:17;;;;;;;;;;;;;;;;;;5063613;28;20021;-60
2024/03/07 11:27:50;;;;;;;30.53;12.60;;;;;;;;;;5050745;28;19909;-60
2024/03/07 11:30:17;;;;;;;23.50;13.65;;;;;;;;;;5052987;28;20026;-59
2024/03/07 11:32:44;;;;;;;21.10;13.30;;;;;;;;;;5054687;28;20033;-62
2024/03/07 11:35:22;;;;;;;21.20;13.00;;;;;;;;;;5065033;28;20041;-60
2024/03/07 11:37:48;;;;;;;18.58;11.52;;;;;;;;;;5056115;28;20032;-59
2024/03/07 11:40:33;;;;;;;23.80;11.73;;;;;;;;;;5052934;28;20043;-58
2024/03/07 11:43:00;;;;;;;22.52;12.48;;;;;;;;;;5044980;28;20090;-58
2024/03/07 11:45:26;;;;;;;20.08;12.95;;;;;;;;;;5054571;28;20029;-60
2024/03/07 11:48:09;;;;;;;20.58;12.60;;;;;;;;;;5050903;28;20037;-59
2024/03/07 11:50:35;;;;;;;20.00;12.57;;;;;;;;;;5056455;28;20029;-60
2024/03/07 11:53:02;;;;;;;21.77;12.90;;;;;;;;;;5055254;28;20071;-60
2024/03/07 11:56:09;;;;;;;23.43;13.73;;;;;;;;;;5058828;28;20089;-59
2024/03/07 11:58:23;;;;;;;20.43;12.67;;;;;;;;;;5052458;28;20041;-59
2024/03/07 12:00:51;;;;;;;22.33;11.90;;;;;;;;;;5057550;28;20036;-59
2024/03/07 12:03:20;;;;;;;18.33;11.23;;;;;;;;;;5058606;28;20033;-59
2024/03/07 12:05:47;;;;;;;22.20;12.60;;;;;;;;;;5054423;28;20025;-58
2024/03/07 12:08:13;;;;;;;20.90;11.70;;;;;;;;;;5064150;28;20060;-60
2024/03/07 12:10:38;;;;;;;;;;;;;;;;;;5056229;28;20108;-59
2024/03/07 12:13:05;;;;;;;22.65;12.95;;;;;;;;;;5055882;28;19967;-59
2024/03/07 12:15:30;;;;;;;;;;;;;;;;;;5064737;28;20037;-57
2024/03/07 12:17:57;;;;;;;25.13;11.38;;;;;;;;;;5053337;28;19898;-60
2024/03/07 12:20:27;;;;;;;21.10;12.30;;;;;;;;;;5054883;28;20033;-59
2024/03/07 12:22:56;;;;;;;23.25;13.05;;;;;;;;;;5053513;28;20043;-59
2024/03/07 12:25:22;;;;;;;23.83;12.52;;;;;;;;;;5064717;28;20013;-58
2024/03/07 12:28:05;;;;;;;20.55;10.02;;;;;;;;;;5055478;28;20089;-62
2024/03/07 12:30:32;;;;;;;22.85;12.32;;;;;;;;;;5053026;28;20048;-60
2024/03/07 12:33:07;;;;;;;28.23;13.10;;;;;;;;;;5057170;28;20481;-59
2024/03/07 12:35:32;;;;;;;15.60;9.00;;;;;;;;;;5044137;28;20071;-59
2024/03/07 12:37:59;;;;;;;17.75;10.13;;;;;;;;;;5055667;28;20109;-60
2024/03/07 12:40:28;;;;;;;23.70;12.18;;;;;;;;;;5055508;28;20021;-59
2024/03/07 12:42:54;;;;;;;20.63;11.18;;;;;;;;;;5057914;28;20041;-60
2024/03/07 12:45:20;;;;;;;23.65;11.50;;;;;;;;;;5059246;28;20032;-60
2024/03/07 12:47:52;;;;;;;19.60;11.40;;;;;;;;;;5051872;28;20052;-59
2024/03/07 12:50:20;;;;;;;17.10;9.90;;;;;;;;;;5050088;28;20075;-60
2024/03/07 12:52:46;;;;;;;23.55;10.50;;;;;;;;;;5054435;28;20025;-58
2024/03/07 12:55:13;;;;;;;14.93;9.75;;;;;;;;;;5055934;28;20041;-59
2024/03/07 12:57:40;;;;;;;18.05;11.07;;;;;;;;;;5054113;28;20052;-59
2024/03/07 13:00:16;;;;;;;19.90;10.73;;;;;;;;;;5054286;28;20064;-60
2024/03/07 13:02:44;;;;;;;19.02;11.23;;;;;;;;;;5052392;28;20029;-61
2024/03/07 13:05:18;;;;;;;15.50;10.13;;;;;;;;;;5058690;28;20080;-59
2024/03/07 13:07:45;;;;;;;16.75;10.25;;;;;;;;;;5058648;28;20029;-59
2024/03/07 13:10:14;;;;;;;20.73;11.48;;;;;;;;;;5058760;28;20038;-60
2024/03/07 13:12:42;;;;;;;21.90;11.52;;;;;;;;;;5054846;28;20026;-59
2024/03/07 13:15:10;;;;;;;16.83;10.25;;;;;;;;;;5073037;28;20025;-59
2024/03/07 13:17:36;;;;;;;13.73;9.40;;;;;;;;;;5059882;28;20048;-58
2024/03/07 13:20:02;;;;;;;23.40;11.32;;;;;;;;;;5054870;28;20033;-58
2024/03/07 13:22:27;;;;;;;17.75;11.65;;;;;;;;;;5058890;28;20108;-60
2024/03/07 13:24:53;;;;;;;19.85;10.40;;;;;;;;;;5058048;28;20047;-60
2024/03/07 13:27:27;;;;;;;14.20;8.98;;;;;;;;;;5054356;28;20018;-60
2024/03/07 13:29:53;;;;;;;18.05;9.98;;;;;;;;;;5063115;28;20045;-61
2024/03/07 13:32:18;;;;;;;14.27;9.00;;;;;;;;;;5054182;28;20034;-61
2024/03/07 13:34:45;;;;;;;16.27;10.88;;;;;;;;;;5053957;28;20088;-60
2024/03/07 13:37:13;;;;;;;16.67;9.02;;;;;;;;;;5047050;28;20049;-59
2024/03/07 13:39:39;;;;;;;19.40;9.85;;;;;;;;;;5059196;28;20060;-60
2024/03/07 13:42:04;;;;;;;18.63;9.48;;;;;;;;;;5054409;28;20065;-60
2024/03/07 13:44:30;;;;;;;14.80;9.85;;;;;;;;;;5055893;28;20033;-60
2024/03/07 13:46:59;;;;;;;20.55;10.70;;;;;;;;;;5053977;28;20057;-59
2024/03/07 13:49:27;;;;;;;18.50;11.52;;;;;;;;;;5054226;28;20029;-60
2024/03/07 13:51:59;;;;;;;15.85;10.40;;;;;;;;;;5053993;28;20093;-60
2024/03/07 13:54:34;;;;;;;19.83;10.50;;;;;;;;;;5058851;28;20026;-58
2024/03/07 13:57:19;;;;;;;25.27;15.02;;;;;;;;;;5054269;28;20033;-53
2024/03/07 13:59:52;;;;;;;34.70;20.30;;;;;;;;;;5060367;28;20040;-53
2024/03/07 14:02:24;;;;;;;19.77;12.53;;;;;;;;;;5053799;28;20056;-52
2024/03/07 14:04:57;;;;;;;64.20;29.33;;;;;;;;;;5055178;28;20044;-50
2024/03/07 14:07:26;;;;;;;50.70;24.70;;;;;;;;;;5054089;28;20029;-55
2024/03/07 14:10:21;;;;;;;26.73;15.13;;;;;;;;;;5053896;28;20055;-52
2024/03/07 14:13:06;;;;;;;41.77;20.93;;;;;;;;;;5040779;28;20037;-52
2024/03/07 14:15:50;;;;;;;30.47;16.77;;;;;;;;;;5054412;28;20079;-51
2024/03/07 14:18:35;;;;;;;32.67;17.17;;;;;;;;;;5049363;28;20150;-54
2024/03/07 14:21:19;;;;;;;31.97;14.77;;;;;;;;;;5053676;28;20053;-52
2024/03/07 14:24:02;;;;;;;30.80;17.07;;;;;;;;;;5046772;28;20056;-52